createdAt,value
2018-08-28T00:01:50.644Z,14.87
2018-08-28T00:05:52.847Z,12.07
2018-08-28T00:09:54.999Z,9.83
2018-08-28T00:13:57.196Z,7.63
2018-08-28T00:17:59.328Z,12.07
2018-08-28T00:22:01.483Z,13.37
2018-08-28T00:26:03.690Z,14.03
2018-08-28T00:30:05.858Z,8.67
2018-08-28T00:34:08.067Z,11.63
2018-08-28T00:38:10.205Z,10.47
2018-08-28T00:42:12.345Z,12.53
2018-08-28T00:46:14.456Z,12.30
2018-08-28T00:50:16.627Z,12.67
2018-08-28T00:54:18.768Z,12.23
2018-08-28T00:58:20.932Z,9.93
2018-08-28T01:02:24.276Z,12.10
2018-08-28T01:06:26.458Z,9.63
2018-08-28T01:10:28.619Z,13.50
2018-08-28T01:14:30.828Z,13.90
2018-08-28T01:18:33.922Z,14.93
2018-08-28T01:22:36.043Z,8.87
2018-08-28T01:26:38.730Z,12.23
2018-08-28T01:30:40.916Z,15.83
2018-08-28T01:34:43.036Z,13.47
2018-08-28T01:38:45.254Z,10.13
2018-08-28T01:42:47.450Z,12.23
2018-08-28T01:46:49.648Z,11.83
2018-08-28T01:50:51.759Z,12.27
2018-08-28T01:54:53.897Z,9.77
2018-08-28T01:58:56.247Z,13.17
2018-08-28T02:02:58.367Z,15.43
2018-08-28T02:07:00.505Z,15.10
2018-08-28T02:11:02.655Z,9.93
2018-08-28T02:15:04.890Z,12.10
2018-08-28T02:19:07.318Z,17.13
2018-08-28T02:23:09.448Z,10.03
2018-08-28T02:27:11.626Z,15.63
2018-08-28T02:31:13.769Z,11.53
2018-08-28T02:35:15.899Z,12.37
2018-08-28T02:39:18.058Z,12.73
2018-08-28T02:43:20.183Z,14.97
2018-08-28T02:47:22.357Z,11.43
2018-08-28T02:51:24.509Z,10.73
2018-08-28T02:55:26.669Z,10.87
2018-08-28T02:59:28.775Z,9.13
2018-08-28T03:03:30.908Z,12.87
2018-08-28T03:07:33.056Z,9.63
2018-08-28T03:11:35.240Z,13.23
2018-08-28T03:15:37.470Z,16.73
2018-08-28T03:19:39.604Z,18.73
2018-08-28T03:23:41.754Z,16.37
2018-08-28T03:27:44.034Z,17.83
2018-08-28T03:31:46.186Z,15.67
2018-08-28T03:35:48.370Z,18.13
2018-08-28T03:39:50.564Z,16.77
2018-08-28T03:43:52.692Z,17.20
2018-08-28T03:47:54.822Z,16.57
2018-08-28T03:51:57.104Z,14.50
2018-08-28T03:55:59.264Z,14.10
2018-08-28T04:00:01.542Z,14.77
2018-08-28T04:04:03.903Z,12.53
2018-08-28T04:08:06.116Z,13.60
2018-08-28T04:12:09.088Z,17.37
2018-08-28T04:16:12.115Z,14.37
2018-08-28T04:20:14.513Z,15.57
2018-08-28T04:24:16.794Z,12.03
2018-08-28T04:28:18.936Z,18.93
2018-08-28T04:32:21.091Z,15.43
2018-08-28T04:36:23.226Z,13.70
2018-08-28T04:40:25.366Z,13.93
2018-08-28T04:44:27.534Z,13.23
2018-08-28T04:48:30.213Z,17.63
2018-08-28T04:52:32.338Z,15.03
2018-08-28T04:56:34.476Z,14.47
2018-08-28T05:00:36.660Z,19.73
2018-08-28T05:04:38.847Z,15.13
2018-08-28T05:08:41.048Z,17.33
2018-08-28T05:12:43.482Z,10.57
2018-08-28T05:16:45.643Z,12.43
2018-08-28T05:20:47.835Z,11.40
2018-08-28T05:24:50.370Z,11.27
2018-08-28T05:28:52.531Z,15.43
2018-08-28T05:32:54.747Z,10.90
2018-08-28T05:36:57.158Z,15.23
2018-08-28T05:40:59.585Z,9.13
2018-08-28T05:45:02.136Z,10.67
2018-08-28T05:49:04.319Z,12.47
2018-08-28T05:53:06.837Z,13.67
2018-08-28T05:57:09.023Z,10.80
2018-08-28T06:01:11.261Z,15.93
2018-08-28T06:05:13.424Z,9.03
2018-08-28T06:09:15.595Z,10.47
2018-08-28T06:13:17.743Z,13.93
2018-08-28T06:17:19.948Z,14.30
2018-08-28T06:21:22.120Z,11.47
2018-08-28T06:25:24.296Z,10.97
2018-08-28T06:29:26.479Z,14.87
2018-08-28T06:33:29.287Z,14.17
2018-08-28T06:37:31.680Z,17.60
2018-08-28T06:41:34.799Z,12.93
2018-08-28T06:45:36.985Z,17.10
2018-08-28T06:49:39.297Z,14.47
2018-08-28T06:53:42.562Z,18.13
2018-08-28T06:57:44.779Z,12.00
2018-08-28T07:01:47.075Z,12.13
2018-08-28T07:05:49.298Z,12.70
2018-08-28T07:09:51.528Z,11.83
2018-08-28T07:13:53.762Z,12.10
2018-08-28T07:17:56.693Z,13.10
2018-08-28T07:21:58.879Z,16.43
2018-08-28T07:26:01.090Z,12.53
2018-08-28T07:30:04.106Z,11.43
2018-08-28T07:34:06.928Z,13.03
2018-08-28T07:38:09.147Z,14.27
2018-08-28T07:42:11.422Z,14.73
2018-08-28T07:46:13.640Z,17.37
2018-08-28T07:50:15.844Z,18.30
2018-08-28T07:54:18.307Z,21.93
2018-08-28T07:58:20.995Z,24.87
2018-08-28T08:02:24.058Z,16.87
2018-08-28T08:06:28.511Z,19.87
2018-08-28T08:10:31.097Z,17.43
2018-08-28T08:14:33.352Z,14.03
2018-08-28T08:18:35.566Z,15.53
2018-08-28T08:22:37.704Z,16.13
2018-08-28T08:26:41.242Z,16.63
2018-08-28T08:30:43.553Z,14.67
2018-08-28T08:34:46.366Z,20.33
2018-08-28T08:38:48.654Z,14.73
2018-08-28T08:42:50.843Z,16.53
2018-08-28T08:46:53.591Z,15.80
2018-08-28T08:50:55.853Z,14.57
2018-08-28T08:54:58.223Z,17.63
2018-08-28T08:59:00.400Z,13.23
2018-08-28T09:03:02.660Z,15.43
2018-08-28T09:07:04.974Z,11.77
2018-08-28T09:11:07.692Z,17.53
2018-08-28T09:15:09.902Z,15.47
2018-08-28T09:19:13.187Z,10.73
2018-08-28T09:23:15.415Z,10.47
2018-08-28T09:27:18.338Z,10.83
2018-08-28T09:31:20.596Z,11.40
2018-08-28T09:35:22.822Z,10.73
2018-08-28T09:39:25.679Z,13.87
2018-08-28T09:43:28.778Z,12.90
2018-08-28T09:47:31.059Z,12.00
2018-08-28T09:51:33.231Z,11.03
2018-08-28T09:55:35.467Z,12.23
2018-08-28T09:59:37.688Z,10.73
2018-08-28T10:03:41.110Z,10.37
2018-08-28T10:07:43.435Z,10.00
2018-08-28T10:11:45.778Z,7.57
2018-08-28T10:15:49.126Z,10.00
2018-08-28T10:19:51.360Z,11.40
2018-08-28T10:23:53.648Z,7.80
2018-08-28T10:27:55.920Z,9.47
2018-08-28T10:31:58.139Z,7.23
2018-08-28T10:36:00.512Z,10.63
2018-08-28T10:40:02.892Z,7.83
2018-08-28T10:44:05.382Z,9.73
2018-08-28T10:48:08.378Z,13.23
2018-08-28T10:52:12.319Z,10.97
2018-08-28T10:56:15.074Z,8.47
2018-08-28T11:00:17.399Z,6.90
2018-08-28T11:04:19.656Z,9.93
2018-08-28T11:08:21.877Z,10.63
2018-08-28T11:12:24.927Z,8.33
2018-08-28T11:16:27.140Z,9.07
2018-08-28T11:20:29.338Z,9.97
2018-08-28T11:24:31.531Z,9.63
2018-08-28T11:28:34.102Z,10.80
2018-08-28T11:32:36.339Z,12.90
2018-08-28T11:36:39.287Z,8.93
2018-08-28T11:40:41.619Z,16.03
2018-08-28T11:44:43.811Z,12.50
2018-08-28T11:48:46.019Z,10.63
2018-08-28T11:52:48.227Z,9.43
2018-08-28T11:56:50.941Z,10.50
2018-08-28T12:00:53.228Z,15.73
2018-08-28T12:04:55.442Z,9.97
2018-08-28T12:08:57.654Z,6.70
2018-08-28T12:12:59.880Z,7.37
2018-08-28T12:17:02.002Z,7.03
2018-08-28T12:21:04.296Z,7.87
2018-08-28T12:25:07.076Z,8.10
2018-08-28T12:29:09.252Z,9.77
2018-08-28T12:33:11.434Z,11.20
2018-08-28T12:37:14.303Z,6.27
2018-08-28T12:41:16.411Z,7.47
2018-08-28T12:45:18.695Z,7.87
2018-08-28T12:49:20.840Z,6.23
2018-08-28T12:53:22.990Z,6.83
2018-08-28T12:57:25.172Z,7.40
2018-08-28T13:01:27.345Z,6.10
2018-08-28T13:05:29.583Z,9.03
2018-08-28T13:09:32.124Z,9.97
2018-08-28T13:13:35.584Z,11.13
2018-08-28T13:17:37.992Z,6.60
2018-08-28T13:21:40.176Z,7.47
2018-08-28T13:25:44.396Z,9.20
2018-08-28T13:29:46.555Z,7.70
2018-08-28T13:33:49.055Z,7.77
2018-08-28T13:37:51.869Z,6.37
2018-08-28T13:41:54.515Z,6.23
2018-08-28T13:45:56.747Z,7.17
2018-08-28T13:49:58.929Z,8.77
2018-08-28T13:54:01.158Z,6.20
2018-08-28T13:58:03.378Z,7.33
2018-08-28T14:02:05.581Z,7.50
2018-08-28T14:06:08.362Z,6.60
2018-08-28T14:10:10.557Z,7.27
2018-08-28T14:14:13.344Z,5.90
2018-08-28T14:18:16.307Z,5.77
2018-08-28T14:22:19.311Z,7.63
2018-08-28T14:26:21.589Z,6.17
2018-08-28T14:30:24.181Z,9.80
2018-08-28T14:34:26.375Z,6.13
2018-08-28T14:38:28.600Z,6.93
2018-08-28T14:42:31.545Z,6.67
2018-08-28T14:46:33.678Z,6.80
2018-08-28T14:50:35.961Z,7.70
2018-08-28T14:54:38.151Z,8.23
2018-08-28T14:58:40.366Z,8.00
2018-08-28T15:02:43.603Z,6.73
2018-08-28T15:06:47.066Z,10.10
2018-08-28T15:10:50.272Z,12.40
2018-08-28T15:14:52.585Z,6.13
2018-08-28T15:18:54.857Z,6.83
2018-08-28T15:22:57.068Z,6.23
2018-08-28T15:26:59.281Z,5.67
2018-08-28T15:31:01.532Z,5.93
2018-08-28T15:35:03.770Z,9.13
2018-08-28T15:39:06.424Z,6.80
2018-08-28T15:43:08.652Z,6.47
2018-08-28T15:47:10.852Z,9.00
2018-08-28T15:51:13.126Z,7.80
2018-08-28T15:55:15.240Z,8.43
2018-08-28T15:59:20.108Z,6.50
2018-08-28T16:03:22.511Z,8.07
2018-08-28T16:07:24.711Z,7.30
2018-08-28T16:11:26.908Z,6.53
2018-08-28T16:15:29.259Z,10.43
2018-08-28T16:19:32.041Z,5.67
2018-08-28T16:23:37.654Z,8.80
2018-08-28T16:27:39.801Z,8.10
2018-08-28T16:31:41.991Z,7.67
2018-08-28T16:35:45.369Z,6.87
2018-08-28T16:39:48.723Z,6.30
2018-08-28T16:43:52.088Z,7.37
2018-08-28T16:47:55.297Z,7.53
2018-08-28T16:52:03.951Z,6.23
2018-08-28T16:56:06.396Z,7.20
2018-08-28T17:00:08.588Z,10.07
2018-08-28T17:04:10.781Z,5.83
2018-08-28T17:08:13.121Z,5.43
2018-08-28T17:12:15.365Z,7.53
2018-08-28T17:16:17.567Z,5.90
2018-08-28T17:20:19.744Z,6.60
2018-08-28T17:24:21.995Z,6.77
2018-08-28T17:28:24.346Z,7.73
2018-08-28T17:32:27.699Z,7.57
2018-08-28T17:36:31.280Z,8.00
2018-08-28T17:40:34.932Z,8.67
2018-08-28T17:44:37.644Z,9.23
2018-08-28T17:48:39.915Z,17.07
2018-08-28T17:52:42.174Z,7.50
2018-08-28T17:56:45.205Z,8.63
2018-08-28T18:00:48.426Z,6.90
2018-08-28T18:04:50.648Z,5.20
2018-08-28T18:08:52.850Z,6.10
2018-08-28T18:12:56.408Z,8.63
2018-08-28T18:16:58.661Z,8.40
2018-08-28T18:21:00.863Z,16.70
2018-08-28T18:25:03.123Z,12.53
2018-08-28T18:29:07.350Z,12.57
2018-08-28T18:33:10.852Z,11.30
2018-08-28T18:37:13.967Z,9.73
2018-08-28T18:41:16.247Z,8.40
2018-08-28T18:45:18.452Z,8.00
2018-08-28T18:49:20.632Z,10.53
2018-08-28T18:53:23.872Z,10.40
2018-08-28T18:57:26.075Z,8.07
2018-08-28T19:01:28.306Z,10.73
2018-08-28T19:05:30.533Z,7.25
2018-08-28T19:09:32.719Z,9.93
2018-08-28T19:13:34.904Z,11.10
2018-08-28T19:17:37.744Z,11.07
2018-08-28T19:21:40.591Z,11.23
2018-08-28T19:25:43.813Z,11.90
2018-08-28T19:29:47.056Z,9.27
2018-08-28T19:33:50.911Z,11.93
2018-08-28T19:37:53.609Z,10.63
2018-08-28T19:41:57.400Z,10.60
2018-08-28T19:45:59.760Z,9.50
2018-08-28T19:50:02.579Z,10.70
2018-08-28T19:54:06.383Z,10.00
2018-08-28T19:58:08.785Z,14.23
2018-08-28T20:02:10.961Z,8.90
2018-08-28T20:06:15.636Z,12.20
2018-08-28T20:10:18.950Z,12.03
2018-08-28T20:14:22.362Z,11.80
2018-08-28T20:18:24.648Z,9.60
2018-08-28T20:22:26.843Z,10.50
2018-08-28T20:26:29.063Z,10.43
2018-08-28T20:30:31.566Z,11.27
2018-08-28T20:34:34.097Z,7.83
2018-08-28T20:38:36.267Z,7.13
2018-08-28T20:42:38.462Z,9.73
2018-08-28T20:46:40.632Z,13.13
2018-08-28T20:50:42.816Z,10.70
2018-08-28T20:54:44.974Z,9.83
2018-08-28T20:58:47.224Z,12.83
2018-08-28T21:02:49.468Z,8.93
2018-08-28T21:06:52.235Z,11.23
2018-08-28T21:10:54.314Z,12.00
2018-08-28T21:14:56.480Z,9.27
2018-08-28T21:18:58.811Z,10.70
2018-08-28T21:23:06.840Z,13.53
2018-08-28T21:27:09.947Z,9.80
2018-08-28T21:31:12.450Z,11.47
2018-08-28T21:35:15.371Z,8.97
2018-08-28T21:39:18.323Z,8.97
2018-08-28T21:43:20.504Z,10.17
2018-08-28T21:47:24.488Z,11.27
2018-08-28T21:51:26.655Z,9.17
2018-08-28T21:55:28.794Z,8.40
2018-08-28T21:59:30.998Z,10.63
2018-08-28T22:03:33.238Z,9.60
2018-08-28T22:07:40.563Z,9.77
2018-08-28T22:11:44.102Z,9.63
2018-08-28T22:15:46.248Z,9.83
2018-08-28T22:19:48.475Z,9.10
2018-08-28T22:23:50.822Z,9.00
2018-08-28T22:27:52.950Z,9.13
2018-08-28T22:31:55.129Z,11.37
2018-08-28T22:35:57.277Z,9.87
2018-08-28T22:39:59.699Z,9.80
2018-08-28T22:44:01.861Z,10.93
2018-08-28T22:48:04.346Z,9.23
2018-08-28T22:52:06.508Z,8.13
2018-08-28T22:56:08.686Z,9.13
2018-08-28T23:00:10.920Z,8.13
2018-08-28T23:04:13.247Z,10.10
2018-08-28T23:08:15.484Z,9.83
2018-08-28T23:12:17.645Z,9.77
2018-08-28T23:16:20.274Z,8.93
2018-08-28T23:20:22.413Z,10.77
2018-08-28T23:24:24.687Z,9.90
2018-08-28T23:28:27.790Z,10.87
2018-08-28T23:32:30.332Z,10.23
2018-08-28T23:36:32.527Z,12.20
2018-08-28T23:40:34.652Z,8.80
2018-08-28T23:44:36.771Z,9.80
2018-08-28T23:48:38.956Z,11.97
2018-08-28T23:52:41.178Z,10.07
2018-08-28T23:56:43.282Z,11.70
